Terminal Aerodrome Forecast
Issued by NWS

Home | Current Version | Previous Version | Text Only | Print | Product List | Glossary On
Versions: 1 2 3 4 5 6 7 8 9 10 11 12
000
FTUS45 KRIW 052336
TAFJAC
TAF
KJAC 052336Z 0600/0624 21006KT P6SM VCTS SCT050CB OVC080
     FM060600 01008KT P6SM VCSH SCT020 OVC040
     FM061800 18007KT P6SM VCSH BKN050
      AMD LTD TO CLD VIS AND WIND=

USA.gov is the U.S. government's official web portal to all federal, state and local government web resources and services.